createdAt,value
2022-10-09T00:01:13.932Z,71.00
2022-10-09T00:03:42.784Z,71.20
2022-10-09T00:06:13.037Z,71.20
2022-10-09T00:08:41.011Z,71.20
2022-10-09T00:11:09.282Z,71.20
2022-10-09T00:13:37.452Z,71.10
2022-10-09T00:16:08.103Z,71.00
2022-10-09T00:18:36.388Z,71.10
2022-10-09T00:21:04.146Z,71.10
2022-10-09T00:23:31.661Z,71.10
2022-10-09T00:26:00.839Z,71.10
2022-10-09T00:28:33.376Z,71.00
2022-10-09T00:31:09.075Z,70.90
2022-10-09T00:33:37.485Z,71.00
2022-10-09T00:36:11.056Z,71.00
2022-10-09T00:38:38.501Z,70.90
2022-10-09T00:41:06.500Z,70.90
2022-10-09T00:43:50.029Z,70.90
2022-10-09T00:46:56.532Z,70.90
2022-10-09T00:49:26.577Z,71.00
2022-10-09T00:51:57.316Z,71.00
2022-10-09T00:54:27.292Z,70.90
2022-10-09T00:56:55.020Z,70.80
2022-10-09T00:59:22.754Z,71.00
2022-10-09T01:01:50.058Z,70.90
2022-10-09T01:04:17.299Z,70.90
2022-10-09T01:06:50.468Z,70.80
2022-10-09T01:09:29.391Z,70.90
2022-10-09T01:12:00.971Z,70.80
2022-10-09T01:14:54.384Z,70.90
2022-10-09T01:17:38.405Z,70.80
2022-10-09T01:20:43.370Z,70.80
2022-10-09T01:23:33.372Z,70.80
2022-10-09T01:26:15.850Z,70.90
2022-10-09T01:28:47.571Z,70.90
2022-10-09T01:31:18.508Z,70.90
2022-10-09T01:33:47.047Z,70.90
2022-10-09T01:36:16.281Z,70.90
2022-10-09T01:38:45.126Z,70.90
2022-10-09T01:41:12.259Z,70.70
2022-10-09T01:43:40.723Z,70.70
2022-10-09T01:46:20.062Z,70.80
2022-10-09T01:49:36.523Z,70.80
2022-10-09T01:52:12.371Z,70.70
2022-10-09T01:55:04.866Z,70.80
2022-10-09T01:57:42.862Z,70.80
2022-10-09T02:00:12.411Z,70.70
2022-10-09T02:02:42.216Z,70.70
2022-10-09T02:05:13.544Z,70.70
2022-10-09T02:07:41.157Z,70.70
2022-10-09T02:10:09.464Z,70.70
2022-10-09T02:12:40.689Z,70.70
2022-10-09T02:15:08.923Z,70.60
2022-10-09T02:17:42.723Z,70.50
2022-10-09T02:20:18.716Z,70.80
2022-10-09T02:22:47.276Z,70.70
2022-10-09T02:25:15.486Z,70.60
2022-10-09T02:27:42.690Z,70.70
2022-10-09T02:30:11.512Z,70.50
2022-10-09T02:32:38.735Z,70.70
2022-10-09T02:35:06.204Z,70.60
2022-10-09T02:37:33.573Z,70.60
2022-10-09T02:40:00.726Z,70.60
2022-10-09T02:42:27.825Z,70.60
2022-10-09T02:44:54.913Z,70.60
2022-10-09T02:47:21.979Z,70.60
2022-10-09T02:49:49.065Z,70.60
2022-10-09T02:52:16.149Z,70.70
2022-10-09T02:54:43.211Z,70.50
2022-10-09T02:57:10.396Z,70.60
2022-10-09T02:59:37.434Z,70.80
2022-10-09T03:02:04.721Z,70.90
2022-10-09T03:04:31.997Z,70.90
2022-10-09T03:06:59.709Z,70.80
2022-10-09T03:09:31.407Z,70.80
2022-10-09T03:12:00.598Z,71.00
2022-10-09T03:14:27.695Z,71.10
2022-10-09T03:16:54.776Z,71.10
2022-10-09T03:19:21.926Z,71.00
2022-10-09T03:21:48.987Z,71.10
2022-10-09T03:24:16.102Z,71.00
2022-10-09T03:26:43.207Z,70.90
2022-10-09T03:29:10.284Z,71.00
2022-10-09T03:31:51.892Z,71.20
2022-10-09T03:34:19.955Z,71.10
2022-10-09T03:36:47.042Z,71.10
2022-10-09T03:39:14.132Z,71.20
2022-10-09T03:41:41.287Z,71.10
2022-10-09T03:44:08.323Z,71.10
2022-10-09T03:46:35.485Z,71.10
2022-10-09T03:49:02.612Z,71.00
2022-10-09T03:51:29.808Z,71.00
2022-10-09T03:53:56.890Z,71.00
2022-10-09T03:56:23.968Z,71.00
2022-10-09T03:58:51.200Z,71.10
2022-10-09T04:01:18.325Z,71.00
2022-10-09T04:03:45.451Z,71.20
2022-10-09T04:06:12.659Z,71.10
2022-10-09T04:08:39.824Z,71.20
2022-10-09T04:11:07.125Z,71.20
2022-10-09T04:13:34.242Z,71.30
2022-10-09T04:16:01.457Z,71.30
2022-10-09T04:18:28.543Z,71.30
2022-10-09T04:20:57.267Z,71.30
2022-10-09T04:23:27.825Z,71.40
2022-10-09T04:25:56.843Z,71.20
2022-10-09T04:28:24.337Z,71.20
2022-10-09T04:30:52.005Z,71.10
2022-10-09T04:33:19.765Z,71.20
2022-10-09T04:35:50.316Z,71.20
2022-10-09T04:38:17.768Z,71.10
2022-10-09T04:40:44.925Z,71.10
2022-10-09T04:43:11.997Z,71.10
2022-10-09T04:45:42.307Z,71.20
2022-10-09T04:48:09.468Z,71.00
2022-10-09T04:50:39.266Z,70.90
2022-10-09T04:53:09.627Z,70.90
2022-10-09T04:55:43.881Z,71.00
2022-10-09T04:58:12.500Z,71.90
2022-10-09T05:00:44.504Z,71.80
2022-10-09T05:03:12.697Z,72.00
2022-10-09T05:05:39.803Z,72.00
2022-10-09T05:08:06.959Z,72.20
2022-10-09T05:10:34.207Z,72.40
2022-10-09T05:13:01.817Z,72.50
2022-10-09T05:15:29.018Z,72.40
2022-10-09T05:17:56.290Z,72.20
2022-10-09T05:20:23.526Z,72.30
2022-10-09T05:22:51.043Z,72.30
2022-10-09T05:25:18.408Z,72.40
2022-10-09T05:27:45.520Z,72.50
2022-10-09T05:30:12.750Z,72.60
2022-10-09T05:32:39.944Z,72.50
2022-10-09T05:35:08.209Z,72.60
2022-10-09T05:37:35.359Z,72.70
2022-10-09T05:40:02.512Z,72.70
2022-10-09T05:42:29.629Z,73.20
2022-10-09T05:44:56.679Z,72.50
2022-10-09T05:47:23.795Z,72.40
2022-10-09T05:49:50.883Z,72.30
2022-10-09T05:52:18.075Z,72.20
2022-10-09T05:54:45.175Z,72.20
2022-10-09T05:57:12.261Z,72.20
2022-10-09T05:59:39.449Z,72.20
2022-10-09T06:02:09.518Z,72.10
2022-10-09T06:04:39.748Z,72.40
2022-10-09T06:07:06.853Z,72.30
2022-10-09T06:09:34.175Z,72.30
2022-10-09T06:12:01.333Z,72.30
2022-10-09T06:14:28.456Z,72.30
2022-10-09T06:16:55.652Z,72.50
2022-10-09T06:19:23.114Z,72.50
2022-10-09T06:21:50.846Z,73.00
2022-10-09T06:24:28.684Z,72.90
2022-10-09T06:26:57.300Z,72.80
2022-10-09T06:29:24.754Z,72.90
2022-10-09T06:31:52.073Z,72.70
2022-10-09T06:34:19.655Z,73.30
2022-10-09T06:36:46.876Z,72.70
2022-10-09T06:39:14.027Z,72.80
2022-10-09T06:41:41.485Z,72.80
2022-10-09T06:44:16.309Z,72.90
2022-10-09T06:46:45.016Z,73.00
2022-10-09T06:49:12.857Z,73.10
2022-10-09T06:51:40.411Z,73.00
2022-10-09T06:54:13.299Z,73.10
2022-10-09T06:56:40.502Z,73.20
2022-10-09T06:59:08.220Z,73.30
2022-10-09T07:01:35.617Z,73.30
2022-10-09T07:04:07.173Z,73.60
2022-10-09T07:06:38.405Z,73.60
2022-10-09T07:09:08.124Z,73.70
2022-10-09T07:11:40.858Z,73.70
2022-10-09T07:14:10.000Z,73.70
2022-10-09T07:16:45.514Z,74.00
2022-10-09T07:19:13.978Z,73.90
2022-10-09T07:21:43.696Z,74.20
2022-10-09T07:24:11.794Z,74.10
2022-10-09T07:26:42.156Z,74.20
2022-10-09T07:29:11.037Z,74.30
2022-10-09T07:31:38.697Z,74.40
2022-10-09T07:34:06.451Z,74.70
2022-10-09T07:36:33.878Z,75.10
2022-10-09T07:39:02.428Z,74.70
2022-10-09T07:41:30.097Z,75.30
2022-10-09T07:43:57.956Z,75.40
2022-10-09T07:46:29.621Z,75.60
2022-10-09T07:48:59.634Z,75.60
2022-10-09T07:51:31.764Z,75.30
2022-10-09T07:54:00.416Z,75.70
2022-10-09T07:56:30.453Z,75.70
2022-10-09T07:59:00.487Z,76.10
2022-10-09T08:01:28.980Z,75.00
2022-10-09T08:03:56.965Z,75.50
2022-10-09T08:06:24.446Z,75.60
2022-10-09T08:08:56.261Z,76.50
2022-10-09T08:11:24.947Z,76.90
2022-10-09T08:13:53.015Z,77.20
2022-10-09T08:16:21.814Z,76.70
2022-10-09T08:18:49.594Z,76.10
2022-10-09T08:21:19.220Z,76.40
2022-10-09T08:23:46.727Z,76.10
2022-10-09T08:26:16.131Z,76.10
2022-10-09T08:28:44.112Z,76.10
2022-10-09T08:31:16.449Z,76.30
2022-10-09T08:33:43.915Z,76.40
2022-10-09T08:36:14.493Z,76.20
2022-10-09T08:38:48.862Z,76.10
2022-10-09T08:41:19.011Z,76.50
2022-10-09T08:43:50.567Z,76.40
2022-10-09T08:46:33.646Z,76.80
2022-10-09T08:49:04.104Z,76.70
2022-10-09T08:51:36.421Z,76.70
2022-10-09T08:54:12.843Z,76.80
2022-10-09T08:56:39.940Z,76.90
2022-10-09T08:59:09.030Z,77.10
2022-10-09T09:02:05.171Z,76.90
2022-10-09T09:04:59.029Z,77.50
2022-10-09T09:08:04.373Z,77.80
2022-10-09T09:10:43.638Z,77.60
2022-10-09T09:13:32.616Z,78.20
2022-10-09T09:16:38.632Z,78.40
2022-10-09T09:19:11.378Z,78.70
2022-10-09T09:21:51.379Z,78.20
2022-10-09T09:24:31.279Z,80.30
2022-10-09T09:27:02.686Z,85.50
2022-10-09T09:29:42.930Z,84.20
2022-10-09T09:32:21.316Z,85.80
2022-10-09T09:34:48.852Z,84.90
2022-10-09T09:37:16.639Z,86.00
2022-10-09T09:40:31.334Z,87.20
2022-10-09T09:42:31.308Z,87.20
2022-10-09T09:45:06.651Z,88.30
2022-10-09T09:47:56.097Z,89.10
2022-10-09T09:50:50.406Z,87.60
2022-10-09T09:53:34.957Z,88.00
2022-10-09T09:56:02.216Z,88.50
2022-10-09T09:58:39.929Z,87.70
2022-10-09T10:01:07.969Z,87.80
2022-10-09T10:03:36.563Z,87.20
2022-10-09T10:06:04.475Z,88.10
2022-10-09T10:08:34.342Z,86.80
2022-10-09T10:11:05.432Z,86.90
2022-10-09T10:13:46.758Z,84.70
2022-10-09T10:16:23.825Z,85.20
2022-10-09T10:18:51.503Z,85.20
2022-10-09T10:21:20.452Z,85.70
2022-10-09T10:24:10.305Z,84.60
2022-10-09T10:26:46.860Z,84.60
2022-10-09T10:29:21.939Z,84.30
2022-10-09T10:31:55.208Z,83.80
2022-10-09T10:34:32.689Z,83.00
2022-10-09T10:37:26.159Z,83.20
2022-10-09T10:40:01.327Z,83.00
2022-10-09T10:42:40.342Z,83.20
2022-10-09T10:45:17.246Z,82.70
2022-10-09T10:47:57.137Z,82.80
2022-10-09T10:50:29.482Z,82.70
2022-10-09T10:53:47.329Z,82.60
2022-10-09T10:56:42.379Z,82.70
2022-10-09T10:59:39.419Z,82.40
2022-10-09T11:02:50.294Z,82.50
2022-10-09T11:05:23.024Z,82.40
2022-10-09T11:08:05.289Z,82.50
2022-10-09T11:11:09.122Z,82.30
2022-10-09T11:13:50.625Z,82.30
2022-10-09T11:16:51.210Z,82.50
2022-10-09T11:19:45.364Z,82.10
2022-10-09T11:22:31.498Z,81.90
2022-10-09T11:25:16.310Z,81.50
2022-10-09T11:27:56.685Z,80.50
2022-10-09T11:30:26.798Z,80.30
2022-10-09T11:33:02.829Z,79.70
2022-10-09T11:35:55.403Z,79.50
2022-10-09T11:38:30.138Z,79.40
2022-10-09T11:41:00.696Z,78.90
2022-10-09T11:43:29.234Z,78.80
2022-10-09T11:46:08.072Z,78.70
2022-10-09T11:48:54.120Z,78.40
2022-10-09T11:51:36.587Z,78.40
2022-10-09T11:54:05.760Z,78.00
2022-10-09T11:56:32.963Z,78.10
2022-10-09T11:59:05.860Z,78.10
2022-10-09T12:01:44.905Z,78.20
2022-10-09T12:04:20.886Z,77.50
2022-10-09T12:06:56.584Z,78.00
2022-10-09T12:09:48.505Z,78.00
2022-10-09T12:12:18.724Z,78.00
2022-10-09T12:14:48.507Z,77.90
2022-10-09T12:17:24.634Z,77.80
2022-10-09T12:20:06.627Z,77.60
2022-10-09T12:22:42.796Z,77.60
2022-10-09T12:25:30.642Z,77.10
2022-10-09T12:28:00.605Z,76.30
2022-10-09T12:30:36.894Z,77.10
2022-10-09T12:33:18.956Z,76.40
2022-10-09T12:35:57.390Z,77.10
2022-10-09T12:38:34.462Z,76.00
2022-10-09T12:41:13.222Z,75.00
2022-10-09T12:43:45.858Z,74.00
2022-10-09T12:46:13.237Z,74.30
2022-10-09T12:48:43.716Z,74.60
2022-10-09T12:51:20.590Z,74.40
2022-10-09T12:53:52.090Z,74.70
2022-10-09T12:56:33.151Z,74.80
2022-10-09T12:59:02.332Z,73.70
2022-10-09T13:01:31.080Z,73.50
2022-10-09T13:04:04.500Z,73.50
2022-10-09T13:06:42.264Z,74.10
2022-10-09T13:09:22.697Z,74.60
2022-10-09T13:12:06.665Z,73.40
2022-10-09T13:14:43.124Z,73.30
2022-10-09T13:17:24.412Z,71.60
2022-10-09T13:19:53.677Z,72.00
2022-10-09T13:22:26.256Z,70.50
2022-10-09T13:24:55.119Z,71.00
2022-10-09T13:27:27.881Z,71.60
2022-10-09T13:29:56.087Z,70.90
2022-10-09T13:32:24.402Z,71.90
2022-10-09T13:34:58.158Z,71.70
2022-10-09T13:37:26.755Z,72.30
2022-10-09T13:39:55.136Z,72.20
2022-10-09T13:42:25.962Z,72.40
2022-10-09T13:44:53.541Z,72.20
2022-10-09T13:47:24.677Z,71.70
2022-10-09T13:49:52.410Z,72.30
2022-10-09T13:52:19.685Z,72.80
2022-10-09T13:54:46.848Z,72.10
2022-10-09T13:57:14.038Z,71.60
2022-10-09T13:59:41.244Z,72.60
2022-10-09T14:02:10.051Z,72.90
2022-10-09T14:04:37.375Z,73.00
2022-10-09T14:07:04.559Z,73.20
2022-10-09T14:09:31.694Z,73.10
2022-10-09T14:11:59.075Z,73.20
2022-10-09T14:14:26.220Z,73.40
2022-10-09T14:16:53.296Z,73.60
2022-10-09T14:19:20.621Z,73.60
2022-10-09T14:21:47.694Z,73.70
2022-10-09T14:24:15.671Z,73.60
2022-10-09T14:26:44.273Z,73.90
2022-10-09T14:29:13.503Z,73.80
2022-10-09T14:31:40.847Z,73.90
2022-10-09T14:34:08.363Z,73.90
2022-10-09T14:36:37.269Z,74.00
2022-10-09T14:39:04.450Z,74.10
2022-10-09T14:41:36.788Z,73.80
2022-10-09T14:44:05.085Z,74.00
2022-10-09T14:46:34.102Z,74.00
2022-10-09T14:49:07.464Z,74.00
2022-10-09T14:51:37.287Z,74.00
2022-10-09T14:54:06.062Z,74.00
2022-10-09T14:56:33.649Z,74.00
2022-10-09T14:59:01.246Z,74.10
2022-10-09T15:01:29.754Z,74.00
2022-10-09T15:03:57.090Z,74.10
2022-10-09T15:06:24.355Z,74.00
2022-10-09T15:08:55.571Z,74.00
2022-10-09T15:11:23.199Z,74.10
2022-10-09T15:13:50.411Z,74.10
2022-10-09T15:16:19.476Z,74.20
2022-10-09T15:18:49.253Z,74.20
2022-10-09T15:21:19.896Z,74.20
2022-10-09T15:23:47.426Z,74.20
2022-10-09T15:26:15.069Z,75.00
2022-10-09T15:28:44.034Z,74.20
2022-10-09T15:31:27.512Z,74.40
2022-10-09T15:33:56.562Z,74.30
2022-10-09T15:36:25.191Z,74.40
2022-10-09T15:38:52.628Z,74.50
2022-10-09T15:41:31.119Z,74.50
2022-10-09T15:44:01.294Z,74.40
2022-10-09T15:46:28.823Z,73.50
2022-10-09T15:48:56.002Z,73.90
2022-10-09T15:51:24.383Z,73.80
2022-10-09T15:53:52.636Z,73.80
2022-10-09T15:56:23.496Z,74.00
2022-10-09T15:58:52.058Z,73.90
2022-10-09T16:01:19.906Z,74.00
2022-10-09T16:03:47.679Z,74.00
2022-10-09T16:06:20.533Z,74.10
2022-10-09T16:08:48.793Z,74.20
2022-10-09T16:11:20.408Z,74.00
2022-10-09T16:13:51.096Z,74.10
2022-10-09T16:16:21.654Z,74.00
2022-10-09T16:18:49.568Z,74.10
2022-10-09T16:21:26.427Z,74.20
2022-10-09T16:23:58.550Z,74.20
2022-10-09T16:26:28.724Z,74.10
2022-10-09T16:28:56.046Z,74.10
2022-10-09T16:31:26.565Z,74.20
2022-10-09T16:33:53.932Z,74.10
2022-10-09T16:36:21.144Z,74.10
2022-10-09T16:38:48.467Z,74.00
2022-10-09T16:41:21.384Z,74.00
2022-10-09T16:43:50.893Z,74.10
2022-10-09T16:46:27.172Z,74.10
2022-10-09T16:48:56.851Z,74.00
2022-10-09T16:51:27.018Z,74.00
2022-10-09T16:53:56.381Z,73.70
2022-10-09T16:56:26.086Z,73.70
2022-10-09T16:59:02.568Z,73.60
2022-10-09T17:01:30.620Z,73.60
2022-10-09T17:03:59.322Z,73.60
2022-10-09T17:06:27.315Z,73.40
2022-10-09T17:08:57.715Z,73.40
2022-10-09T17:11:26.445Z,73.20
2022-10-09T17:13:56.914Z,73.20
2022-10-09T17:16:27.186Z,73.10
2022-10-09T17:18:54.623Z,73.20
2022-10-09T17:21:21.735Z,72.90
2022-10-09T17:23:55.018Z,72.90
2022-10-09T17:26:24.019Z,72.80
2022-10-09T17:28:53.062Z,72.70
2022-10-09T17:31:24.918Z,72.80
2022-10-09T17:33:56.147Z,72.60
2022-10-09T17:36:26.243Z,72.60
2022-10-09T17:38:53.937Z,72.50
2022-10-09T17:41:23.687Z,72.50
2022-10-09T17:43:55.126Z,72.40
2022-10-09T17:46:24.249Z,73.10
2022-10-09T17:48:56.175Z,72.20
2022-10-09T17:51:31.879Z,72.20
2022-10-09T17:54:01.732Z,71.80
2022-10-09T17:56:30.748Z,72.40
2022-10-09T17:59:00.398Z,72.40
2022-10-09T18:01:27.897Z,72.40
2022-10-09T18:03:55.416Z,72.30
2022-10-09T18:06:24.245Z,72.30
2022-10-09T18:08:54.119Z,72.30
2022-10-09T18:11:23.753Z,72.30
2022-10-09T18:13:51.248Z,72.30
2022-10-09T18:16:23.006Z,72.30
2022-10-09T18:18:50.755Z,72.30
2022-10-09T18:21:18.321Z,72.30
2022-10-09T18:23:46.961Z,72.10
2022-10-09T18:26:16.325Z,72.20
2022-10-09T18:28:47.463Z,72.10
2022-10-09T18:31:19.454Z,72.00
2022-10-09T18:33:47.503Z,72.00
2022-10-09T18:36:19.890Z,72.10
2022-10-09T18:38:50.010Z,72.00
2022-10-09T18:41:17.976Z,72.00
2022-10-09T18:43:45.882Z,71.90
2022-10-09T18:46:13.838Z,71.80
2022-10-09T18:48:41.676Z,71.90
2022-10-09T18:51:14.095Z,71.70
2022-10-09T18:53:44.000Z,71.50
2022-10-09T18:56:12.338Z,71.70
2022-10-09T18:58:42.051Z,71.80
2022-10-09T19:01:09.419Z,71.70
2022-10-09T19:03:44.777Z,71.20
2022-10-09T19:06:14.937Z,71.60
2022-10-09T19:08:44.587Z,71.40
2022-10-09T19:11:14.562Z,71.50
2022-10-09T19:13:45.136Z,71.50
2022-10-09T19:16:12.500Z,71.30
2022-10-09T19:18:39.830Z,71.10
2022-10-09T19:21:07.359Z,71.10
2022-10-09T19:23:34.531Z,71.20
2022-10-09T19:26:01.725Z,71.00
2022-10-09T19:28:33.109Z,71.30
2022-10-09T19:31:02.728Z,71.00
2022-10-09T19:33:30.018Z,70.80
2022-10-09T19:35:57.761Z,71.00
2022-10-09T19:38:30.466Z,71.00
2022-10-09T19:41:04.367Z,71.10
2022-10-09T19:43:32.042Z,71.10
2022-10-09T19:46:10.915Z,71.10
2022-10-09T19:48:38.654Z,71.20
2022-10-09T19:51:11.529Z,70.90
2022-10-09T19:53:39.213Z,70.90
2022-10-09T19:56:18.515Z,70.60
2022-10-09T19:58:47.663Z,70.70
2022-10-09T20:01:17.259Z,70.80
2022-10-09T20:03:45.296Z,70.80
2022-10-09T20:06:12.792Z,70.90
2022-10-09T20:08:42.081Z,70.80
2022-10-09T20:11:11.549Z,70.70
2022-10-09T20:13:40.580Z,70.80
2022-10-09T20:16:12.407Z,70.90
2022-10-09T20:18:42.420Z,70.60
2022-10-09T20:21:15.295Z,70.70
2022-10-09T20:23:44.364Z,71.00
2022-10-09T20:26:18.217Z,70.70
2022-10-09T20:28:46.598Z,71.00
2022-10-09T20:31:20.734Z,70.70
2022-10-09T20:33:49.448Z,70.70
2022-10-09T20:36:35.587Z,70.90
2022-10-09T20:39:06.497Z,70.80
2022-10-09T20:41:36.018Z,70.70
2022-10-09T20:44:04.660Z,70.80
2022-10-09T20:46:34.096Z,71.00
2022-10-09T20:49:03.760Z,70.90
2022-10-09T20:51:31.475Z,70.60
2022-10-09T20:54:00.493Z,70.80
2022-10-09T20:56:30.461Z,70.80
2022-10-09T20:58:58.377Z,70.80
2022-10-09T21:01:26.015Z,70.80
2022-10-09T21:03:53.327Z,70.70
2022-10-09T21:06:23.066Z,70.90
2022-10-09T21:08:50.708Z,70.70
2022-10-09T21:11:20.190Z,71.00
2022-10-09T21:13:48.950Z,70.80
2022-10-09T21:16:20.538Z,71.00
2022-10-09T21:18:47.972Z,70.80
2022-10-09T21:21:17.837Z,71.00
2022-10-09T21:23:47.348Z,70.70
2022-10-09T21:26:18.519Z,70.80
2022-10-09T21:28:47.324Z,70.90
2022-10-09T21:31:20.427Z,71.00
2022-10-09T21:33:47.834Z,70.90
2022-10-09T21:36:29.239Z,70.60
2022-10-09T21:38:56.369Z,70.70
2022-10-09T21:41:23.658Z,70.80
2022-10-09T21:43:50.752Z,70.90
2022-10-09T21:46:17.859Z,71.00
2022-10-09T21:48:45.129Z,70.80
2022-10-09T21:51:12.248Z,70.70
2022-10-09T21:53:39.478Z,70.90
2022-10-09T21:56:07.348Z,70.80
2022-10-09T21:58:34.463Z,71.30
2022-10-09T22:01:02.628Z,70.90
2022-10-09T22:03:33.961Z,71.00
2022-10-09T22:06:05.310Z,71.00
2022-10-09T22:08:32.471Z,71.00
2022-10-09T22:10:59.646Z,70.80
2022-10-09T22:13:26.871Z,70.90
2022-10-09T22:15:54.027Z,70.90
2022-10-09T22:18:21.435Z,70.70
2022-10-09T22:20:50.160Z,71.10
2022-10-09T22:23:20.945Z,71.00
2022-10-09T22:26:05.856Z,70.90
2022-10-09T22:28:33.298Z,70.90
2022-10-09T22:31:14.009Z,70.80
2022-10-09T22:33:42.001Z,70.80
2022-10-09T22:36:16.326Z,70.80
2022-10-09T22:38:44.582Z,70.90
2022-10-09T22:41:17.813Z,71.00
2022-10-09T22:43:46.461Z,70.90
2022-10-09T22:46:19.189Z,70.90
2022-10-09T22:48:46.726Z,70.80
2022-10-09T22:51:16.192Z,70.90
2022-10-09T22:53:44.568Z,70.80
2022-10-09T22:56:27.103Z,70.90
2022-10-09T22:58:54.527Z,71.20
2022-10-09T23:01:30.243Z,71.10
2022-10-09T23:04:06.404Z,71.10
2022-10-09T23:06:33.865Z,70.90
2022-10-09T23:09:01.415Z,71.10
2022-10-09T23:11:28.554Z,71.10
2022-10-09T23:13:58.494Z,71.10
2022-10-09T23:16:26.888Z,71.00
2022-10-09T23:18:54.588Z,71.10
2022-10-09T23:21:23.356Z,71.10
2022-10-09T23:23:51.419Z,71.20
2022-10-09T23:26:24.524Z,71.30
2022-10-09T23:28:53.679Z,71.10
2022-10-09T23:31:21.519Z,71.30
2022-10-09T23:33:49.099Z,71.20
2022-10-09T23:36:19.771Z,71.30
2022-10-09T23:38:47.354Z,71.30
2022-10-09T23:41:18.436Z,71.30
2022-10-09T23:43:46.989Z,71.30
2022-10-09T23:46:22.997Z,71.20
2022-10-09T23:48:51.505Z,71.20
2022-10-09T23:51:20.346Z,71.20
2022-10-09T23:53:48.020Z,71.20
2022-10-09T23:56:47.260Z,71.10
2022-10-09T23:59:14.412Z,71.10
